sensor_id;sensor_type;location;lat;lon;timestamp;pressure;altitude;pressure_sealevel;temperature
10058;BMP180;5068;51.286;7.518;2024-01-06T00:00:55;97952.00;;;9.90
10058;BMP180;5068;51.286;7.518;2024-01-06T00:02:29;97947.00;;;9.90
10058;BMP180;5068;51.286;7.518;2024-01-06T00:04:01;97944.00;;;9.90
10058;BMP180;5068;51.286;7.518;2024-01-06T00:05:35;97944.00;;;9.90
10058;BMP180;5068;51.286;7.518;2024-01-06T00:07:08;97948.00;;;9.90
10058;BMP180;5068;51.286;7.518;2024-01-06T00:08:42;97955.00;;;9.80
10058;BMP180;5068;51.286;7.518;2024-01-06T00:10:14;97964.00;;;9.80
10058;BMP180;5068;51.286;7.518;2024-01-06T00:11:49;97963.00;;;9.80
10058;BMP180;5068;51.286;7.518;2024-01-06T00:13:22;97961.00;;;9.80
10058;BMP180;5068;51.286;7.518;2024-01-06T00:14:55;97960.00;;;9.70
10058;BMP180;5068;51.286;7.518;2024-01-06T00:16:27;97953.00;;;9.80
10058;BMP180;5068;51.286;7.518;2024-01-06T00:18:01;97958.00;;;9.80
10058;BMP180;5068;51.286;7.518;2024-01-06T00:19:33;97957.00;;;9.80
10058;BMP180;5068;51.286;7.518;2024-01-06T00:21:08;97951.00;;;9.80
10058;BMP180;5068;51.286;7.518;2024-01-06T00:22:42;97955.00;;;9.80
10058;BMP180;5068;51.286;7.518;2024-01-06T00:24:16;97957.00;;;9.80
10058;BMP180;5068;51.286;7.518;2024-01-06T00:25:48;97955.00;;;9.80
10058;BMP180;5068;51.286;7.518;2024-01-06T00:27:22;97967.00;;;9.80
10058;BMP180;5068;51.286;7.518;2024-01-06T00:28:54;97967.00;;;9.80
10058;BMP180;5068;51.286;7.518;2024-01-06T00:30:28;97972.00;;;9.80
10058;BMP180;5068;51.286;7.518;2024-01-06T00:32:00;97969.00;;;9.80
10058;BMP180;5068;51.286;7.518;2024-01-06T00:33:34;97976.00;;;9.90
10058;BMP180;5068;51.286;7.518;2024-01-06T00:35:07;97973.00;;;9.90
10058;BMP180;5068;51.286;7.518;2024-01-06T00:36:41;97972.00;;;9.90
10058;BMP180;5068;51.286;7.518;2024-01-06T00:38:14;97971.00;;;9.90
10058;BMP180;5068;51.286;7.518;2024-01-06T00:39:48;97973.00;;;9.90
10058;BMP180;5068;51.286;7.518;2024-01-06T00:41:20;97978.00;;;9.90
10058;BMP180;5068;51.286;7.518;2024-01-06T00:42:54;97981.00;;;9.90
10058;BMP180;5068;51.286;7.518;2024-01-06T00:44:27;97980.00;;;9.90
10058;BMP180;5068;51.286;7.518;2024-01-06T00:45:59;97975.00;;;9.90
10058;BMP180;5068;51.286;7.518;2024-01-06T00:47:33;97968.00;;;9.90
10058;BMP180;5068;51.286;7.518;2024-01-06T00:49:05;97977.00;;;9.90
10058;BMP180;5068;51.286;7.518;2024-01-06T00:50:39;97969.00;;;9.90
10058;BMP180;5068;51.286;7.518;2024-01-06T00:52:11;97986.00;;;9.90
10058;BMP180;5068;51.286;7.518;2024-01-06T00:53:46;97982.00;;;9.90
10058;BMP180;5068;51.286;7.518;2024-01-06T00:55:19;97978.00;;;9.90
10058;BMP180;5068;51.286;7.518;2024-01-06T00:56:53;97981.00;;;9.90
10058;BMP180;5068;51.286;7.518;2024-01-06T00:58:29;97979.00;;;9.90
10058;BMP180;5068;51.286;7.518;2024-01-06T01:00:02;97981.00;;;9.80
10058;BMP180;5068;51.286;7.518;2024-01-06T01:01:36;97994.00;;;9.90
10058;BMP180;5068;51.286;7.518;2024-01-06T01:03:08;97991.00;;;9.90
10058;BMP180;5068;51.286;7.518;2024-01-06T01:04:42;97988.00;;;9.90
10058;BMP180;5068;51.286;7.518;2024-01-06T01:06:15;97989.00;;;9.90
10058;BMP180;5068;51.286;7.518;2024-01-06T01:07:48;97996.00;;;9.90
10058;BMP180;5068;51.286;7.518;2024-01-06T01:09:22;97991.00;;;9.90
10058;BMP180;5068;51.286;7.518;2024-01-06T01:10:55;97987.00;;;9.90
10058;BMP180;5068;51.286;7.518;2024-01-06T01:12:29;97997.00;;;9.90
10058;BMP180;5068;51.286;7.518;2024-01-06T01:14:01;97996.00;;;9.90
10058;BMP180;5068;51.286;7.518;2024-01-06T01:15:35;97992.00;;;10.00
10058;BMP180;5068;51.286;7.518;2024-01-06T01:17:08;97991.00;;;10.00
10058;BMP180;5068;51.286;7.518;2024-01-06T01:18:40;97994.00;;;10.00
10058;BMP180;5068;51.286;7.518;2024-01-06T01:20:13;97999.00;;;10.00
10058;BMP180;5068;51.286;7.518;2024-01-06T01:21:46;97998.00;;;10.00
10058;BMP180;5068;51.286;7.518;2024-01-06T01:23:19;98005.00;;;10.00
10058;BMP180;5068;51.286;7.518;2024-01-06T01:24:53;97997.00;;;10.00
10058;BMP180;5068;51.286;7.518;2024-01-06T01:26:27;98004.00;;;10.00
10058;BMP180;5068;51.286;7.518;2024-01-06T01:28:01;98000.00;;;10.00
10058;BMP180;5068;51.286;7.518;2024-01-06T01:29:33;98002.00;;;10.00
10058;BMP180;5068;51.286;7.518;2024-01-06T01:31:06;98008.00;;;10.00
10058;BMP180;5068;51.286;7.518;2024-01-06T01:32:39;98018.00;;;10.10
10058;BMP180;5068;51.286;7.518;2024-01-06T01:34:13;98010.00;;;10.10
10058;BMP180;5068;51.286;7.518;2024-01-06T01:35:45;98010.00;;;10.10
10058;BMP180;5068;51.286;7.518;2024-01-06T01:37:19;98005.00;;;10.10
10058;BMP180;5068;51.286;7.518;2024-01-06T01:38:52;98006.00;;;10.10
10058;BMP180;5068;51.286;7.518;2024-01-06T01:40:27;98009.00;;;10.10
10058;BMP180;5068;51.286;7.518;2024-01-06T01:41:59;98012.00;;;10.10
10058;BMP180;5068;51.286;7.518;2024-01-06T01:43:32;98010.00;;;10.10
10058;BMP180;5068;51.286;7.518;2024-01-06T01:45:06;98012.00;;;10.10
10058;BMP180;5068;51.286;7.518;2024-01-06T01:46:41;98013.00;;;10.10
10058;BMP180;5068;51.286;7.518;2024-01-06T01:48:15;98012.00;;;10.10
10058;BMP180;5068;51.286;7.518;2024-01-06T01:49:48;98011.00;;;10.10
10058;BMP180;5068;51.286;7.518;2024-01-06T01:51:23;98012.00;;;10.10
10058;BMP180;5068;51.286;7.518;2024-01-06T01:52:58;98016.00;;;10.10
10058;BMP180;5068;51.286;7.518;2024-01-06T01:54:31;98023.00;;;10.10
10058;BMP180;5068;51.286;7.518;2024-01-06T01:56:06;98013.00;;;10.10
10058;BMP180;5068;51.286;7.518;2024-01-06T01:57:38;98024.00;;;10.10
10058;BMP180;5068;51.286;7.518;2024-01-06T01:59:14;98021.00;;;10.10
10058;BMP180;5068;51.286;7.518;2024-01-06T02:00:46;98023.00;;;10.10
10058;BMP180;5068;51.286;7.518;2024-01-06T02:02:21;98015.00;;;10.10
10058;BMP180;5068;51.286;7.518;2024-01-06T02:03:55;98017.00;;;10.10
10058;BMP180;5068;51.286;7.518;2024-01-06T02:05:27;98012.00;;;10.10
10058;BMP180;5068;51.286;7.518;2024-01-06T02:07:01;98015.00;;;10.10
10058;BMP180;5068;51.286;7.518;2024-01-06T02:08:33;98021.00;;;10.10
10058;BMP180;5068;51.286;7.518;2024-01-06T02:10:08;98021.00;;;10.10
10058;BMP180;5068;51.286;7.518;2024-01-06T02:11:41;98024.00;;;10.10
10058;BMP180;5068;51.286;7.518;2024-01-06T02:13:15;98037.00;;;10.10
10058;BMP180;5068;51.286;7.518;2024-01-06T02:14:47;98016.00;;;10.10
10058;BMP180;5068;51.286;7.518;2024-01-06T02:16:21;98030.00;;;10.10
10058;BMP180;5068;51.286;7.518;2024-01-06T02:17:53;98024.00;;;10.10
10058;BMP180;5068;51.286;7.518;2024-01-06T02:19:27;98033.00;;;10.10
10058;BMP180;5068;51.286;7.518;2024-01-06T02:21:02;98032.00;;;10.10
10058;BMP180;5068;51.286;7.518;2024-01-06T02:22:37;98036.00;;;10.10
10058;BMP180;5068;51.286;7.518;2024-01-06T02:24:10;98037.00;;;10.10
10058;BMP180;5068;51.286;7.518;2024-01-06T02:25:43;98037.00;;;10.10
10058;BMP180;5068;51.286;7.518;2024-01-06T02:27:15;98035.00;;;10.00
10058;BMP180;5068;51.286;7.518;2024-01-06T02:28:49;98039.00;;;10.00
10058;BMP180;5068;51.286;7.518;2024-01-06T02:30:22;98040.00;;;10.00
10058;BMP180;5068;51.286;7.518;2024-01-06T02:31:56;98041.00;;;10.00
10058;BMP180;5068;51.286;7.518;2024-01-06T02:33:28;98043.00;;;10.00
10058;BMP180;5068;51.286;7.518;2024-01-06T02:35:02;98043.00;;;10.00
10058;BMP180;5068;51.286;7.518;2024-01-06T02:36:34;98040.00;;;10.00
10058;BMP180;5068;51.286;7.518;2024-01-06T02:38:09;98041.00;;;10.10
10058;BMP180;5068;51.286;7.518;2024-01-06T02:39:42;98052.00;;;10.10
10058;BMP180;5068;51.286;7.518;2024-01-06T02:41:15;98051.00;;;10.10
10058;BMP180;5068;51.286;7.518;2024-01-06T02:42:47;98052.00;;;10.10
10058;BMP180;5068;51.286;7.518;2024-01-06T02:44:21;98054.00;;;10.10
10058;BMP180;5068;51.286;7.518;2024-01-06T02:45:53;98049.00;;;10.10
10058;BMP180;5068;51.286;7.518;2024-01-06T02:47:27;98057.00;;;10.10
10058;BMP180;5068;51.286;7.518;2024-01-06T02:48:59;98062.00;;;10.10
10058;BMP180;5068;51.286;7.518;2024-01-06T02:50:33;98069.00;;;10.10
10058;BMP180;5068;51.286;7.518;2024-01-06T02:52:05;98043.00;;;10.10
10058;BMP180;5068;51.286;7.518;2024-01-06T02:53:40;98066.00;;;10.10
10058;BMP180;5068;51.286;7.518;2024-01-06T02:55:13;98061.00;;;10.10
10058;BMP180;5068;51.286;7.518;2024-01-06T02:56:46;98065.00;;;10.10
10058;BMP180;5068;51.286;7.518;2024-01-06T02:58:18;98066.00;;;10.10
10058;BMP180;5068;51.286;7.518;2024-01-06T02:59:52;98074.00;;;10.10
10058;BMP180;5068;51.286;7.518;2024-01-06T03:01:24;98064.00;;;10.10
10058;BMP180;5068;51.286;7.518;2024-01-06T03:02:58;98064.00;;;10.10
10058;BMP180;5068;51.286;7.518;2024-01-06T03:04:30;98066.00;;;10.10
10058;BMP180;5068;51.286;7.518;2024-01-06T03:06:04;98075.00;;;10.10
10058;BMP180;5068;51.286;7.518;2024-01-06T03:07:37;98068.00;;;10.10
10058;BMP180;5068;51.286;7.518;2024-01-06T03:09:11;98072.00;;;10.10
10058;BMP180;5068;51.286;7.518;2024-01-06T03:10:44;98076.00;;;10.10
10058;BMP180;5068;51.286;7.518;2024-01-06T03:12:17;98077.00;;;10.00
10058;BMP180;5068;51.286;7.518;2024-01-06T03:13:49;98078.00;;;10.10
10058;BMP180;5068;51.286;7.518;2024-01-06T03:15:23;98067.00;;;10.10
10058;BMP180;5068;51.286;7.518;2024-01-06T03:16:55;98069.00;;;10.10
10058;BMP180;5068;51.286;7.518;2024-01-06T03:18:30;98072.00;;;10.10
10058;BMP180;5068;51.286;7.518;2024-01-06T03:20:04;98076.00;;;10.00
10058;BMP180;5068;51.286;7.518;2024-01-06T03:21:37;98084.00;;;10.00
10058;BMP180;5068;51.286;7.518;2024-01-06T03:23:10;98082.00;;;10.00
10058;BMP180;5068;51.286;7.518;2024-01-06T03:24:44;98086.00;;;10.00
10058;BMP180;5068;51.286;7.518;2024-01-06T03:26:18;98087.00;;;10.00
10058;BMP180;5068;51.286;7.518;2024-01-06T03:27:50;98090.00;;;10.00
10058;BMP180;5068;51.286;7.518;2024-01-06T03:29:23;98092.00;;;10.00
10058;BMP180;5068;51.286;7.518;2024-01-06T03:30:56;98087.00;;;10.00
10058;BMP180;5068;51.286;7.518;2024-01-06T03:32:29;98086.00;;;10.00
10058;BMP180;5068;51.286;7.518;2024-01-06T03:34:01;98097.00;;;10.00
10058;BMP180;5068;51.286;7.518;2024-01-06T03:35:35;98099.00;;;9.90
10058;BMP180;5068;51.286;7.518;2024-01-06T03:37:09;98103.00;;;9.90
10058;BMP180;5068;51.286;7.518;2024-01-06T03:38:41;98106.00;;;9.90
10058;BMP180;5068;51.286;7.518;2024-01-06T03:40:16;98099.00;;;9.90
10058;BMP180;5068;51.286;7.518;2024-01-06T03:41:48;98104.00;;;9.80
10058;BMP180;5068;51.286;7.518;2024-01-06T03:43:22;98107.00;;;9.80
10058;BMP180;5068;51.286;7.518;2024-01-06T03:44:54;98109.00;;;9.80
10058;BMP180;5068;51.286;7.518;2024-01-06T03:46:28;98112.00;;;9.80
10058;BMP180;5068;51.286;7.518;2024-01-06T03:48:01;98111.00;;;9.80
10058;BMP180;5068;51.286;7.518;2024-01-06T03:49:34;98112.00;;;9.80
10058;BMP180;5068;51.286;7.518;2024-01-06T03:51:07;98111.00;;;9.70
10058;BMP180;5068;51.286;7.518;2024-01-06T03:52:42;98114.00;;;9.70
10058;BMP180;5068;51.286;7.518;2024-01-06T03:54:15;98112.00;;;9.70
10058;BMP180;5068;51.286;7.518;2024-01-06T03:55:49;98121.00;;;9.80
10058;BMP180;5068;51.286;7.518;2024-01-06T03:57:22;98113.00;;;9.80
10058;BMP180;5068;51.286;7.518;2024-01-06T03:58:55;98114.00;;;9.80
10058;BMP180;5068;51.286;7.518;2024-01-06T04:00:28;98118.00;;;9.80
10058;BMP180;5068;51.286;7.518;2024-01-06T04:02:02;98121.00;;;9.80
10058;BMP180;5068;51.286;7.518;2024-01-06T04:03:34;98114.00;;;9.80
10058;BMP180;5068;51.286;7.518;2024-01-06T04:05:08;98111.00;;;9.80
10058;BMP180;5068;51.286;7.518;2024-01-06T04:06:40;98124.00;;;9.90
10058;BMP180;5068;51.286;7.518;2024-01-06T04:08:14;98119.00;;;9.80
10058;BMP180;5068;51.286;7.518;2024-01-06T04:09:46;98112.00;;;9.80
10058;BMP180;5068;51.286;7.518;2024-01-06T04:11:21;98119.00;;;9.80
10058;BMP180;5068;51.286;7.518;2024-01-06T04:12:53;98117.00;;;9.80
10058;BMP180;5068;51.286;7.518;2024-01-06T04:14:27;98110.00;;;9.80
10058;BMP180;5068;51.286;7.518;2024-01-06T04:15:59;98119.00;;;9.80
10058;BMP180;5068;51.286;7.518;2024-01-06T04:17:32;98110.00;;;9.80
10058;BMP180;5068;51.286;7.518;2024-01-06T04:19:05;98124.00;;;9.80
10058;BMP180;5068;51.286;7.518;2024-01-06T04:20:39;98122.00;;;9.80
10058;BMP180;5068;51.286;7.518;2024-01-06T04:22:12;98117.00;;;9.80
10058;BMP180;5068;51.286;7.518;2024-01-06T04:23:45;98122.00;;;9.80
10058;BMP180;5068;51.286;7.518;2024-01-06T04:25:18;98120.00;;;9.80
10058;BMP180;5068;51.286;7.518;2024-01-06T04:26:52;98132.00;;;9.80
10058;BMP180;5068;51.286;7.518;2024-01-06T04:28:25;98115.00;;;9.80
10058;BMP180;5068;51.286;7.518;2024-01-06T04:29:58;98117.00;;;9.80
10058;BMP180;5068;51.286;7.518;2024-01-06T04:31:30;98124.00;;;9.80
10058;BMP180;5068;51.286;7.518;2024-01-06T04:33:04;98129.00;;;9.80
10058;BMP180;5068;51.286;7.518;2024-01-06T04:34:37;98128.00;;;9.80
10058;BMP180;5068;51.286;7.518;2024-01-06T04:36:10;98129.00;;;9.80
10058;BMP180;5068;51.286;7.518;2024-01-06T04:37:43;98125.00;;;9.80
10058;BMP180;5068;51.286;7.518;2024-01-06T04:39:16;98125.00;;;9.80
10058;BMP180;5068;51.286;7.518;2024-01-06T04:40:49;98125.00;;;9.80
10058;BMP180;5068;51.286;7.518;2024-01-06T04:42:23;98123.00;;;9.80
10058;BMP180;5068;51.286;7.518;2024-01-06T04:43:56;98133.00;;;9.80
10058;BMP180;5068;51.286;7.518;2024-01-06T04:45:29;98128.00;;;9.80
10058;BMP180;5068;51.286;7.518;2024-01-06T04:47:03;98128.00;;;9.70
10058;BMP180;5068;51.286;7.518;2024-01-06T04:48:37;98131.00;;;9.70
10058;BMP180;5068;51.286;7.518;2024-01-06T04:50:10;98143.00;;;9.70
10058;BMP180;5068;51.286;7.518;2024-01-06T04:51:43;98134.00;;;9.70
10058;BMP180;5068;51.286;7.518;2024-01-06T04:53:16;98138.00;;;9.70
10058;BMP180;5068;51.286;7.518;2024-01-06T04:54:49;98140.00;;;9.70
10058;BMP180;5068;51.286;7.518;2024-01-06T04:56:22;98137.00;;;9.80
10058;BMP180;5068;51.286;7.518;2024-01-06T04:57:57;98137.00;;;9.80
10058;BMP180;5068;51.286;7.518;2024-01-06T04:59:29;98145.00;;;9.80
10058;BMP180;5068;51.286;7.518;2024-01-06T05:01:03;98140.00;;;9.70
10058;BMP180;5068;51.286;7.518;2024-01-06T05:02:35;98145.00;;;9.80
10058;BMP180;5068;51.286;7.518;2024-01-06T05:04:08;98158.00;;;9.80
10058;BMP180;5068;51.286;7.518;2024-01-06T05:05:41;98148.00;;;9.70
10058;BMP180;5068;51.286;7.518;2024-01-06T05:07:14;98150.00;;;9.70
10058;BMP180;5068;51.286;7.518;2024-01-06T05:08:47;98149.00;;;9.70
10058;BMP180;5068;51.286;7.518;2024-01-06T05:10:20;98154.00;;;9.80
10058;BMP180;5068;51.286;7.518;2024-01-06T05:11:52;98156.00;;;9.70
10058;BMP180;5068;51.286;7.518;2024-01-06T05:13:27;98155.00;;;9.70
10058;BMP180;5068;51.286;7.518;2024-01-06T05:15:00;98156.00;;;9.70
10058;BMP180;5068;51.286;7.518;2024-01-06T05:16:33;98161.00;;;9.70
10058;BMP180;5068;51.286;7.518;2024-01-06T05:18:06;98156.00;;;9.70
10058;BMP180;5068;51.286;7.518;2024-01-06T05:19:39;98164.00;;;9.70
10058;BMP180;5068;51.286;7.518;2024-01-06T05:21:12;98170.00;;;9.70
10058;BMP180;5068;51.286;7.518;2024-01-06T05:22:45;98175.00;;;9.80
10058;BMP180;5068;51.286;7.518;2024-01-06T05:24:19;98172.00;;;9.70
10058;BMP180;5068;51.286;7.518;2024-01-06T05:25:51;98173.00;;;9.70
10058;BMP180;5068;51.286;7.518;2024-01-06T05:27:24;98177.00;;;9.70
10058;BMP180;5068;51.286;7.518;2024-01-06T05:28:59;98181.00;;;9.70
10058;BMP180;5068;51.286;7.518;2024-01-06T05:30:32;98166.00;;;9.70
10058;BMP180;5068;51.286;7.518;2024-01-06T05:32:06;98173.00;;;9.70
10058;BMP180;5068;51.286;7.518;2024-01-06T05:33:39;98179.00;;;9.70
10058;BMP180;5068;51.286;7.518;2024-01-06T05:35:12;98182.00;;;9.70
10058;BMP180;5068;51.286;7.518;2024-01-06T05:36:45;98182.00;;;9.70
10058;BMP180;5068;51.286;7.518;2024-01-06T05:38:19;98186.00;;;9.70
10058;BMP180;5068;51.286;7.518;2024-01-06T05:39:51;98190.00;;;9.70
10058;BMP180;5068;51.286;7.518;2024-01-06T05:41:26;98183.00;;;9.70
10058;BMP180;5068;51.286;7.518;2024-01-06T05:42:59;98174.00;;;9.70
10058;BMP180;5068;51.286;7.518;2024-01-06T05:44:36;98176.00;;;9.70
10058;BMP180;5068;51.286;7.518;2024-01-06T05:46:09;98170.00;;;9.70
10058;BMP180;5068;51.286;7.518;2024-01-06T05:47:42;98179.00;;;9.70
10058;BMP180;5068;51.286;7.518;2024-01-06T05:49:15;98173.00;;;9.80
10058;BMP180;5068;51.286;7.518;2024-01-06T05:50:48;98189.00;;;9.80
10058;BMP180;5068;51.286;7.518;2024-01-06T05:52:21;98193.00;;;9.80
10058;BMP180;5068;51.286;7.518;2024-01-06T05:53:54;98198.00;;;9.70
10058;BMP180;5068;51.286;7.518;2024-01-06T05:55:27;98191.00;;;9.70
10058;BMP180;5068;51.286;7.518;2024-01-06T05:57:01;98203.00;;;9.70
10058;BMP180;5068;51.286;7.518;2024-01-06T05:58:34;98207.00;;;9.70
10058;BMP180;5068;51.286;7.518;2024-01-06T06:00:11;98201.00;;;9.70
10058;BMP180;5068;51.286;7.518;2024-01-06T06:01:44;98210.00;;;9.70
10058;BMP180;5068;51.286;7.518;2024-01-06T06:03:17;98214.00;;;9.70
10058;BMP180;5068;51.286;7.518;2024-01-06T06:04:50;98212.00;;;9.70
10058;BMP180;5068;51.286;7.518;2024-01-06T06:06:23;98215.00;;;9.70
10058;BMP180;5068;51.286;7.518;2024-01-06T06:07:56;98212.00;;;9.70
10058;BMP180;5068;51.286;7.518;2024-01-06T06:09:29;98215.00;;;9.70
10058;BMP180;5068;51.286;7.518;2024-01-06T06:11:02;98214.00;;;9.70
10058;BMP180;5068;51.286;7.518;2024-01-06T06:12:42;98216.00;;;9.70
10058;BMP180;5068;51.286;7.518;2024-01-06T06:14:15;98214.00;;;9.70
10058;BMP180;5068;51.286;7.518;2024-01-06T06:15:49;98222.00;;;9.60
10058;BMP180;5068;51.286;7.518;2024-01-06T06:17:22;98224.00;;;9.60
10058;BMP180;5068;51.286;7.518;2024-01-06T06:18:56;98223.00;;;9.60
10058;BMP180;5068;51.286;7.518;2024-01-06T06:20:28;98238.00;;;9.60
10058;BMP180;5068;51.286;7.518;2024-01-06T06:22:02;98232.00;;;9.60
10058;BMP180;5068;51.286;7.518;2024-01-06T06:23:34;98242.00;;;9.60
10058;BMP180;5068;51.286;7.518;2024-01-06T06:25:08;98244.00;;;9.70
10058;BMP180;5068;51.286;7.518;2024-01-06T06:26:41;98239.00;;;9.60
10058;BMP180;5068;51.286;7.518;2024-01-06T06:28:15;98245.00;;;9.70
10058;BMP180;5068;51.286;7.518;2024-01-06T06:29:47;98241.00;;;9.70
10058;BMP180;5068;51.286;7.518;2024-01-06T06:31:22;98248.00;;;9.70
10058;BMP180;5068;51.286;7.518;2024-01-06T06:32:54;98251.00;;;9.70
10058;BMP180;5068;51.286;7.518;2024-01-06T06:34:28;98251.00;;;9.70
10058;BMP180;5068;51.286;7.518;2024-01-06T06:36:02;98263.00;;;9.70
10058;BMP180;5068;51.286;7.518;2024-01-06T06:37:34;98258.00;;;9.70
10058;BMP180;5068;51.286;7.518;2024-01-06T06:39:08;98266.00;;;9.70
10058;BMP180;5068;51.286;7.518;2024-01-06T06:40:40;98269.00;;;9.70
10058;BMP180;5068;51.286;7.518;2024-01-06T06:42:14;98263.00;;;9.70
10058;BMP180;5068;51.286;7.518;2024-01-06T06:43:47;98275.00;;;9.70
10058;BMP180;5068;51.286;7.518;2024-01-06T06:45:19;98271.00;;;9.60
10058;BMP180;5068;51.286;7.518;2024-01-06T06:46:56;98274.00;;;9.60
10058;BMP180;5068;51.286;7.518;2024-01-06T06:48:29;98285.00;;;9.60
10058;BMP180;5068;51.286;7.518;2024-01-06T06:50:04;98283.00;;;9.60
10058;BMP180;5068;51.286;7.518;2024-01-06T06:51:37;98292.00;;;9.60
10058;BMP180;5068;51.286;7.518;2024-01-06T06:53:18;98282.00;;;9.60
10058;BMP180;5068;51.286;7.518;2024-01-06T06:54:50;98291.00;;;9.60
10058;BMP180;5068;51.286;7.518;2024-01-06T06:56:25;98296.00;;;9.60
10058;BMP180;5068;51.286;7.518;2024-01-06T06:57:58;98291.00;;;9.60
10058;BMP180;5068;51.286;7.518;2024-01-06T06:59:31;98292.00;;;9.60
10058;BMP180;5068;51.286;7.518;2024-01-06T07:01:04;98303.00;;;9.60
10058;BMP180;5068;51.286;7.518;2024-01-06T07:02:39;98293.00;;;9.60
10058;BMP180;5068;51.286;7.518;2024-01-06T07:04:14;98301.00;;;9.60
10058;BMP180;5068;51.286;7.518;2024-01-06T07:05:48;98308.00;;;9.60
10058;BMP180;5068;51.286;7.518;2024-01-06T07:07:21;98309.00;;;9.60
10058;BMP180;5068;51.286;7.518;2024-01-06T07:08:54;98314.00;;;9.60
10058;BMP180;5068;51.286;7.518;2024-01-06T07:10:27;98319.00;;;9.60
10058;BMP180;5068;51.286;7.518;2024-01-06T07:11:59;98315.00;;;9.60
10058;BMP180;5068;51.286;7.518;2024-01-06T07:13:33;98315.00;;;9.60
10058;BMP180;5068;51.286;7.518;2024-01-06T07:15:06;98319.00;;;9.60
10058;BMP180;5068;51.286;7.518;2024-01-06T07:16:41;98324.00;;;9.60
10058;BMP180;5068;51.286;7.518;2024-01-06T07:18:15;98323.00;;;9.50
10058;BMP180;5068;51.286;7.518;2024-01-06T07:19:48;98319.00;;;9.50
10058;BMP180;5068;51.286;7.518;2024-01-06T07:21:22;98323.00;;;9.50
10058;BMP180;5068;51.286;7.518;2024-01-06T07:22:55;98327.00;;;9.50
10058;BMP180;5068;51.286;7.518;2024-01-06T07:24:28;98339.00;;;9.50
10058;BMP180;5068;51.286;7.518;2024-01-06T07:26:01;98335.00;;;9.50
10058;BMP180;5068;51.286;7.518;2024-01-06T07:27:34;98335.00;;;9.50
10058;BMP180;5068;51.286;7.518;2024-01-06T07:29:07;98344.00;;;9.50
10058;BMP180;5068;51.286;7.518;2024-01-06T07:30:41;98348.00;;;9.50
10058;BMP180;5068;51.286;7.518;2024-01-06T07:32:13;98339.00;;;9.50
10058;BMP180;5068;51.286;7.518;2024-01-06T07:33:48;98353.00;;;9.50
10058;BMP180;5068;51.286;7.518;2024-01-06T07:35:22;98350.00;;;9.50
10058;BMP180;5068;51.286;7.518;2024-01-06T07:36:55;98356.00;;;9.50
10058;BMP180;5068;51.286;7.518;2024-01-06T07:38:28;98357.00;;;9.50
10058;BMP180;5068;51.286;7.518;2024-01-06T07:40:03;98355.00;;;9.40
10058;BMP180;5068;51.286;7.518;2024-01-06T07:41:37;98362.00;;;9.40
10058;BMP180;5068;51.286;7.518;2024-01-06T07:43:09;98362.00;;;9.40
10058;BMP180;5068;51.286;7.518;2024-01-06T07:44:42;98375.00;;;9.40
10058;BMP180;5068;51.286;7.518;2024-01-06T07:46:16;98361.00;;;9.40
10058;BMP180;5068;51.286;7.518;2024-01-06T07:47:51;98371.00;;;9.40
10058;BMP180;5068;51.286;7.518;2024-01-06T07:49:25;98375.00;;;9.40
10058;BMP180;5068;51.286;7.518;2024-01-06T07:50:59;98369.00;;;9.40
10058;BMP180;5068;51.286;7.518;2024-01-06T07:52:31;98373.00;;;9.40
10058;BMP180;5068;51.286;7.518;2024-01-06T07:54:05;98388.00;;;9.40
10058;BMP180;5068;51.286;7.518;2024-01-06T07:55:38;98376.00;;;9.40
10058;BMP180;5068;51.286;7.518;2024-01-06T07:57:11;98391.00;;;9.40
10058;BMP180;5068;51.286;7.518;2024-01-06T07:58:45;98396.00;;;9.40
10058;BMP180;5068;51.286;7.518;2024-01-06T08:00:18;98394.00;;;9.40
10058;BMP180;5068;51.286;7.518;2024-01-06T08:01:51;98394.00;;;9.40
10058;BMP180;5068;51.286;7.518;2024-01-06T08:03:24;98388.00;;;9.40
10058;BMP180;5068;51.286;7.518;2024-01-06T08:04:58;98399.00;;;9.40
10058;BMP180;5068;51.286;7.518;2024-01-06T08:06:32;98393.00;;;9.40
10058;BMP180;5068;51.286;7.518;2024-01-06T08:08:05;98393.00;;;9.40
10058;BMP180;5068;51.286;7.518;2024-01-06T08:09:38;98399.00;;;9.40
10058;BMP180;5068;51.286;7.518;2024-01-06T08:11:13;98406.00;;;9.40
10058;BMP180;5068;51.286;7.518;2024-01-06T08:12:46;98398.00;;;9.40
10058;BMP180;5068;51.286;7.518;2024-01-06T08:14:18;98407.00;;;9.40
10058;BMP180;5068;51.286;7.518;2024-01-06T08:15:52;98410.00;;;9.40
10058;BMP180;5068;51.286;7.518;2024-01-06T08:17:24;98419.00;;;9.40
10058;BMP180;5068;51.286;7.518;2024-01-06T08:18:58;98414.00;;;9.40
10058;BMP180;5068;51.286;7.518;2024-01-06T08:20:33;98430.00;;;9.40
10058;BMP180;5068;51.286;7.518;2024-01-06T08:22:06;98411.00;;;9.40
10058;BMP180;5068;51.286;7.518;2024-01-06T08:23:56;98429.00;;;9.40
10058;BMP180;5068;51.286;7.518;2024-01-06T08:25:29;98424.00;;;9.40
10058;BMP180;5068;51.286;7.518;2024-01-06T08:27:03;98429.00;;;9.40
10058;BMP180;5068;51.286;7.518;2024-01-06T08:28:36;98432.00;;;9.40
10058;BMP180;5068;51.286;7.518;2024-01-06T08:30:10;98439.00;;;9.40
10058;BMP180;5068;51.286;7.518;2024-01-06T08:31:43;98448.00;;;9.40
10058;BMP180;5068;51.286;7.518;2024-01-06T08:33:16;98442.00;;;9.40
10058;BMP180;5068;51.286;7.518;2024-01-06T08:34:50;98448.00;;;9.40
10058;BMP180;5068;51.286;7.518;2024-01-06T08:36:24;98447.00;;;9.40
10058;BMP180;5068;51.286;7.518;2024-01-06T08:37:58;98445.00;;;9.40
10058;BMP180;5068;51.286;7.518;2024-01-06T08:39:31;98457.00;;;9.40
10058;BMP180;5068;51.286;7.518;2024-01-06T08:41:04;98457.00;;;9.40
10058;BMP180;5068;51.286;7.518;2024-01-06T08:42:37;98454.00;;;9.40
10058;BMP180;5068;51.286;7.518;2024-01-06T08:44:11;98462.00;;;9.40
10058;BMP180;5068;51.286;7.518;2024-01-06T08:45:44;98459.00;;;9.40
10058;BMP180;5068;51.286;7.518;2024-01-06T08:47:16;98469.00;;;9.30
10058;BMP180;5068;51.286;7.518;2024-01-06T08:48:50;98475.00;;;9.30
10058;BMP180;5068;51.286;7.518;2024-01-06T08:50:22;98471.00;;;9.30
10058;BMP180;5068;51.286;7.518;2024-01-06T08:51:57;98468.00;;;9.30
10058;BMP180;5068;51.286;7.518;2024-01-06T08:53:30;98467.00;;;9.30
10058;BMP180;5068;51.286;7.518;2024-01-06T08:55:04;98469.00;;;9.30
10058;BMP180;5068;51.286;7.518;2024-01-06T08:56:37;98477.00;;;9.30
10058;BMP180;5068;51.286;7.518;2024-01-06T08:58:10;98475.00;;;9.30
10058;BMP180;5068;51.286;7.518;2024-01-06T08:59:43;98481.00;;;9.30
10058;BMP180;5068;51.286;7.518;2024-01-06T09:01:17;98478.00;;;9.30
10058;BMP180;5068;51.286;7.518;2024-01-06T09:02:49;98485.00;;;9.30
10058;BMP180;5068;51.286;7.518;2024-01-06T09:04:23;98487.00;;;9.30
10058;BMP180;5068;51.286;7.518;2024-01-06T09:05:56;98488.00;;;9.30
10058;BMP180;5068;51.286;7.518;2024-01-06T09:07:31;98491.00;;;9.30
10058;BMP180;5068;51.286;7.518;2024-01-06T09:09:03;98486.00;;;9.30
10058;BMP180;5068;51.286;7.518;2024-01-06T09:10:37;98491.00;;;9.30
10058;BMP180;5068;51.286;7.518;2024-01-06T09:12:09;98494.00;;;9.30